KHEY/HEY METAR and TAF weather

Enter ICAO airport designator
Station Type Date Time Source
KHEY METAR 2019/10/23 02:58 UTC NOAA

KHEY 230258Z AUTO 31004KT 10SM CLR 14/09 A3010 RMK AO2 SLP194 T01390091 52017


Station Type Date Time Source
KHEY Decoded METAR 2019/10/23 02:58 UTC NOAA

Hanchey AHP / Ozark, AL, United States (KHEY) 31-21N 085-40W
Oct 22, 2019 - 10:58 PM EDT / 2019.10.23 0258 UTC
Wind: from the NW (310 degrees) at 5 MPH (4 KT):0
Visibility: 10 mile(s):0
Sky conditions: clear
Temperature: 57.0 F (13.9 C)
Dew Point: 48.4 F (9.1 C)
Relative Humidity: 72%
Pressure (altimeter): 30.1 in. Hg (1019 hPa)
Pressure tendency: 0.05 inches (1.7 hPa) higher than three hours ago
ob: KHEY 230258Z AUTO 31004KT 10SM CLR 14/09 A3010 RMK AO2 SLP194 T01390091 52017
cycle: 3

Station Type Date Time Source
KHEY TAF UTC NOAA

Error!

Example: see airport list